sensor_id;sensor_type;location;lat;lon;timestamp;pressure;altitude;pressure_sealevel;temperature;humidity
61682;BME280;47577;43.610;25.010;2023-02-22T00:01:41;100241.03;;;11.87;47.81
61682;BME280;47577;43.610;25.010;2023-02-22T00:04:36;100230.16;;;11.49;48.48
61682;BME280;47577;43.610;25.010;2023-02-22T00:07:13;100249.66;;;11.49;49.27
61682;BME280;47577;43.610;25.010;2023-02-22T00:10:12;100264.09;;;11.44;49.08
61682;BME280;47577;43.610;25.010;2023-02-22T00:12:47;100249.38;;;11.57;48.43
61682;BME280;47577;43.610;25.010;2023-02-22T00:15:15;100244.59;;;11.65;48.03
61682;BME280;47577;43.610;25.010;2023-02-22T00:17:42;100252.63;;;11.64;48.77
61682;BME280;47577;43.610;25.010;2023-02-22T00:20:08;100252.34;;;11.71;48.27
61682;BME280;47577;43.610;25.010;2023-02-22T00:23:07;100259.84;;;11.62;48.90
61682;BME280;47577;43.610;25.010;2023-02-22T00:25:34;100247.94;;;11.48;49.30
61682;BME280;47577;43.610;25.010;2023-02-22T00:28:03;100242.16;;;11.59;49.12
61682;BME280;47577;43.610;25.010;2023-02-22T00:30:30;100247.63;;;11.56;48.88
61682;BME280;47577;43.610;25.010;2023-02-22T00:32:57;100250.28;;;11.56;48.99
61682;BME280;47577;43.610;25.010;2023-02-22T00:35:25;100250.16;;;11.59;49.54
61682;BME280;47577;43.610;25.010;2023-02-22T00:37:54;100238.22;;;11.47;49.09
61682;BME280;47577;43.610;25.010;2023-02-22T00:40:23;100246.56;;;11.38;49.87
61682;BME280;47577;43.610;25.010;2023-02-22T00:42:50;100246.28;;;11.22;50.05
61682;BME280;47577;43.610;25.010;2023-02-22T00:45:18;100246.41;;;11.19;50.27
61682;BME280;47577;43.610;25.010;2023-02-22T00:47:45;100242.66;;;11.25;50.81
61682;BME280;47577;43.610;25.010;2023-02-22T00:50:15;100245.50;;;11.20;50.18
61682;BME280;47577;43.610;25.010;2023-02-22T00:52:41;100238.38;;;11.21;50.60
61682;BME280;47577;43.610;25.010;2023-02-22T00:55:10;100240.34;;;11.15;50.78
61682;BME280;47577;43.610;25.010;2023-02-22T00:57:42;100240.47;;;11.12;50.39
61682;BME280;47577;43.610;25.010;2023-02-22T01:00:09;100248.63;;;11.08;51.17
61682;BME280;47577;43.610;25.010;2023-02-22T01:02:45;100244.44;;;10.77;52.09
61682;BME280;47577;43.610;25.010;2023-02-22T01:05:19;100248.72;;;10.57;52.25
61682;BME280;47577;43.610;25.010;2023-02-22T01:07:46;100247.53;;;10.66;52.48
61682;BME280;47577;43.610;25.010;2023-02-22T01:10:13;100249.81;;;10.75;52.30
61682;BME280;47577;43.610;25.010;2023-02-22T01:12:39;100254.75;;;10.63;51.90
61682;BME280;47577;43.610;25.010;2023-02-22T01:15:08;100254.13;;;10.54;52.03
61682;BME280;47577;43.610;25.010;2023-02-22T01:17:38;100246.78;;;10.63;52.72
61682;BME280;47577;43.610;25.010;2023-02-22T01:20:14;100248.00;;;10.52;52.96
61682;BME280;47577;43.610;25.010;2023-02-22T01:22:41;100256.19;;;10.46;52.60
61682;BME280;47577;43.610;25.010;2023-02-22T01:25:09;100253.88;;;10.37;52.73
61682;BME280;47577;43.610;25.010;2023-02-22T01:27:35;100257.84;;;10.23;53.35
61682;BME280;47577;43.610;25.010;2023-02-22T01:30:02;100259.59;;;10.51;52.17
61682;BME280;47577;43.610;25.010;2023-02-22T01:32:39;100257.69;;;10.55;53.28
61682;BME280;47577;43.610;25.010;2023-02-22T01:38:08;100263.00;;;10.28;53.09
61682;BME280;47577;43.610;25.010;2023-02-22T01:40:47;100267.13;;;10.38;53.63
61682;BME280;47577;43.610;25.010;2023-02-22T01:43:19;100268.91;;;10.38;52.90
61682;BME280;47577;43.610;25.010;2023-02-22T01:48:29;100249.88;;;10.23;53.56
61682;BME280;47577;43.610;25.010;2023-02-22T01:51:20;100254.06;;;10.04;53.74
61682;BME280;47577;43.610;25.010;2023-02-22T01:53:54;100258.53;;;10.03;53.43
61682;BME280;47577;43.610;25.010;2023-02-22T01:56:23;100244.50;;;10.00;52.88
61682;BME280;47577;43.610;25.010;2023-02-22T01:58:57;100257.69;;;10.03;53.16
61682;BME280;47577;43.610;25.010;2023-02-22T02:01:24;100248.06;;;9.99;54.00
61682;BME280;47577;43.610;25.010;2023-02-22T02:03:54;100242.81;;;9.97;54.28
61682;BME280;47577;43.610;25.010;2023-02-22T02:06:23;100231.13;;;10.03;53.27
61682;BME280;47577;43.610;25.010;2023-02-22T02:09:03;100237.19;;;10.06;54.05
61682;BME280;47577;43.610;25.010;2023-02-22T02:11:35;100244.75;;;9.92;53.65
61682;BME280;47577;43.610;25.010;2023-02-22T02:14:06;100241.94;;;9.97;53.28
61682;BME280;47577;43.610;25.010;2023-02-22T02:16:44;100246.06;;;10.05;53.11
61682;BME280;47577;43.610;25.010;2023-02-22T02:25:06;100254.00;;;9.80;54.48
61682;BME280;47577;43.610;25.010;2023-02-22T02:27:43;100247.66;;;9.84;54.40
61682;BME280;47577;43.610;25.010;2023-02-22T02:36:56;100257.50;;;9.81;54.80
61682;BME280;47577;43.610;25.010;2023-02-22T02:39:09;100250.69;;;9.74;55.94
61682;BME280;47577;43.610;25.010;2023-02-22T02:41:43;100246.44;;;9.68;55.21
61682;BME280;47577;43.610;25.010;2023-02-22T02:44:26;100258.28;;;9.84;54.56
61682;BME280;47577;43.610;25.010;2023-02-22T02:47:30;100257.28;;;9.88;54.35
61682;BME280;47577;43.610;25.010;2023-02-22T02:50:10;100247.50;;;9.89;54.11
61682;BME280;47577;43.610;25.010;2023-02-22T02:52:48;100238.88;;;9.82;54.94
61682;BME280;47577;43.610;25.010;2023-02-22T02:55:18;100255.72;;;9.81;54.59
61682;BME280;47577;43.610;25.010;2023-02-22T02:57:44;100251.16;;;9.86;54.69
61682;BME280;47577;43.610;25.010;2023-02-22T03:00:16;100256.22;;;9.93;55.01
61682;BME280;47577;43.610;25.010;2023-02-22T03:11:20;100282.69;;;9.96;54.68
61682;BME280;47577;43.610;25.010;2023-02-22T03:14:12;100267.69;;;9.95;54.59
61682;BME280;47577;43.610;25.010;2023-02-22T03:16:49;100272.25;;;9.89;55.68
61682;BME280;47577;43.610;25.010;2023-02-22T03:22:15;100270.91;;;10.04;55.29
61682;BME280;47577;43.610;25.010;2023-02-22T03:25:07;100285.44;;;9.93;54.64
61682;BME280;47577;43.610;25.010;2023-02-22T03:27:50;100287.94;;;9.97;55.96
61682;BME280;47577;43.610;25.010;2023-02-22T03:38:15;100279.84;;;10.02;55.19
61682;BME280;47577;43.610;25.010;2023-02-22T03:40:48;100280.94;;;9.96;55.53
61682;BME280;47577;43.610;25.010;2023-02-22T03:43:26;100282.28;;;9.81;55.32
61682;BME280;47577;43.610;25.010;2023-02-22T03:45:53;100285.16;;;9.75;56.06
61682;BME280;47577;43.610;25.010;2023-02-22T03:48:42;100282.13;;;9.86;56.17
61682;BME280;47577;43.610;25.010;2023-02-22T03:51:15;100293.69;;;9.85;56.68
61682;BME280;47577;43.610;25.010;2023-02-22T03:53:42;100285.03;;;9.78;56.68
61682;BME280;47577;43.610;25.010;2023-02-22T03:56:12;100286.72;;;9.81;57.54
61682;BME280;47577;43.610;25.010;2023-02-22T03:58:40;100290.31;;;9.51;57.10
61682;BME280;47577;43.610;25.010;2023-02-22T04:01:12;100297.38;;;9.52;56.81
61682;BME280;47577;43.610;25.010;2023-02-22T04:03:41;100301.78;;;9.52;58.01
61682;BME280;47577;43.610;25.010;2023-02-22T04:06:07;100299.56;;;9.38;58.62
61682;BME280;47577;43.610;25.010;2023-02-22T04:08:40;100294.13;;;9.43;57.56
61682;BME280;47577;43.610;25.010;2023-02-22T04:14:22;100303.88;;;9.12;59.87
61682;BME280;47577;43.610;25.010;2023-02-22T04:16:49;100301.22;;;9.12;59.35
61682;BME280;47577;43.610;25.010;2023-02-22T04:19:18;100307.84;;;8.98;59.42
61682;BME280;47577;43.610;25.010;2023-02-22T04:21:52;100310.00;;;9.14;59.16
61682;BME280;47577;43.610;25.010;2023-02-22T04:24:41;100302.66;;;9.23;60.04
61682;BME280;47577;43.610;25.010;2023-02-22T04:27:10;100299.03;;;9.27;59.53
61682;BME280;47577;43.610;25.010;2023-02-22T04:29:36;100307.94;;;9.24;59.94
61682;BME280;47577;43.610;25.010;2023-02-22T04:32:02;100301.50;;;9.33;58.71
61682;BME280;47577;43.610;25.010;2023-02-22T04:34:28;100303.34;;;9.29;59.24
61682;BME280;47577;43.610;25.010;2023-02-22T04:36:57;100295.19;;;9.07;59.38
61682;BME280;47577;43.610;25.010;2023-02-22T04:39:42;100300.19;;;8.87;61.42
61682;BME280;47577;43.610;25.010;2023-02-22T04:42:17;100287.94;;;8.81;60.55
61682;BME280;47577;43.610;25.010;2023-02-22T04:44:42;100289.56;;;8.87;61.62
61682;BME280;47577;43.610;25.010;2023-02-22T04:47:08;100287.09;;;8.81;60.94
61682;BME280;47577;43.610;25.010;2023-02-22T04:49:34;100283.59;;;8.80;60.78
61682;BME280;47577;43.610;25.010;2023-02-22T04:52:00;100291.88;;;8.68;61.90
61682;BME280;47577;43.610;25.010;2023-02-22T04:54:28;100301.06;;;8.86;60.92
61682;BME280;47577;43.610;25.010;2023-02-22T04:56:54;100285.22;;;8.53;62.33
61682;BME280;47577;43.610;25.010;2023-02-22T04:59:20;100284.53;;;8.77;61.57
61682;BME280;47577;43.610;25.010;2023-02-22T05:01:46;100297.09;;;8.71;61.40
61682;BME280;47577;43.610;25.010;2023-02-22T05:04:14;100291.50;;;8.82;61.34
61682;BME280;47577;43.610;25.010;2023-02-22T05:06:43;100297.91;;;9.04;62.03
61682;BME280;47577;43.610;25.010;2023-02-22T05:09:15;100293.22;;;9.14;61.03
61682;BME280;47577;43.610;25.010;2023-02-22T05:11:44;100301.25;;;9.11;61.01
61682;BME280;47577;43.610;25.010;2023-02-22T05:14:10;100293.75;;;9.25;60.14
61682;BME280;47577;43.610;25.010;2023-02-22T05:16:36;100292.75;;;9.29;61.12
61682;BME280;47577;43.610;25.010;2023-02-22T05:19:03;100292.53;;;9.07;61.48
61682;BME280;47577;43.610;25.010;2023-02-22T05:21:29;100293.09;;;9.19;61.11
61682;BME280;47577;43.610;25.010;2023-02-22T05:23:54;100297.03;;;9.04;61.20
61682;BME280;47577;43.610;25.010;2023-02-22T05:26:20;100307.25;;;9.18;61.43
61682;BME280;47577;43.610;25.010;2023-02-22T05:28:46;100286.84;;;9.20;60.65
61682;BME280;47577;43.610;25.010;2023-02-22T05:31:12;100299.38;;;9.14;60.63
61682;BME280;47577;43.610;25.010;2023-02-22T05:33:37;100303.94;;;9.09;61.15
61682;BME280;47577;43.610;25.010;2023-02-22T05:36:04;100306.34;;;9.19;61.45
61682;BME280;47577;43.610;25.010;2023-02-22T05:38:38;100311.66;;;9.19;60.84
61682;BME280;47577;43.610;25.010;2023-02-22T05:41:12;100312.44;;;9.22;60.13
61682;BME280;47577;43.610;25.010;2023-02-22T05:43:39;100311.44;;;9.25;60.07
61682;BME280;47577;43.610;25.010;2023-02-22T05:46:11;100312.97;;;9.33;60.61
61682;BME280;47577;43.610;25.010;2023-02-22T05:48:42;100327.06;;;9.36;60.31
61682;BME280;47577;43.610;25.010;2023-02-22T05:51:08;100333.81;;;9.46;60.44
61682;BME280;47577;43.610;25.010;2023-02-22T05:53:35;100329.16;;;9.54;59.59
61682;BME280;47577;43.610;25.010;2023-02-22T05:56:02;100332.41;;;9.64;59.39
61682;BME280;47577;43.610;25.010;2023-02-22T05:58:28;100334.66;;;9.76;59.43
61682;BME280;47577;43.610;25.010;2023-02-22T06:00:54;100341.44;;;9.86;59.37
61682;BME280;47577;43.610;25.010;2023-02-22T06:03:19;100343.69;;;9.99;58.84
61682;BME280;47577;43.610;25.010;2023-02-22T06:08:33;100345.91;;;10.13;58.94
61682;BME280;47577;43.610;25.010;2023-02-22T06:11:17;100360.75;;;10.18;57.70
61682;BME280;47577;43.610;25.010;2023-02-22T06:13:51;100360.25;;;10.35;57.43
61682;BME280;47577;43.610;25.010;2023-02-22T06:16:21;100362.84;;;10.37;56.70
61682;BME280;47577;43.610;25.010;2023-02-22T06:18:47;100366.97;;;10.46;57.85
61682;BME280;47577;43.610;25.010;2023-02-22T06:21:16;100364.84;;;10.57;57.82
61682;BME280;47577;43.610;25.010;2023-02-22T06:23:42;100367.22;;;10.65;56.84
61682;BME280;47577;43.610;25.010;2023-02-22T06:26:10;100375.72;;;10.76;56.93
61682;BME280;47577;43.610;25.010;2023-02-22T06:28:36;100383.03;;;10.94;56.71
61682;BME280;47577;43.610;25.010;2023-02-22T06:31:11;100374.34;;;11.14;55.92
61682;BME280;47577;43.610;25.010;2023-02-22T06:33:40;100373.13;;;11.23;55.60
61682;BME280;47577;43.610;25.010;2023-02-22T06:36:08;100386.47;;;11.22;55.78
61682;BME280;47577;43.610;25.010;2023-02-22T06:38:43;100400.75;;;11.19;55.22
61682;BME280;47577;43.610;25.010;2023-02-22T06:41:12;100381.38;;;11.15;56.40
61682;BME280;47577;43.610;25.010;2023-02-22T06:43:39;100381.56;;;11.34;55.48
61682;BME280;47577;43.610;25.010;2023-02-22T06:46:12;100381.06;;;11.25;55.97
61682;BME280;47577;43.610;25.010;2023-02-22T06:48:38;100397.16;;;11.45;55.34
61682;BME280;47577;43.610;25.010;2023-02-22T06:51:10;100395.31;;;11.47;55.90
61682;BME280;47577;43.610;25.010;2023-02-22T06:53:42;100396.69;;;11.58;55.38
61682;BME280;47577;43.610;25.010;2023-02-22T06:56:14;100396.50;;;11.62;55.47
61682;BME280;47577;43.610;25.010;2023-02-22T06:58:45;100398.59;;;11.78;54.55
61682;BME280;47577;43.610;25.010;2023-02-22T07:01:11;100390.59;;;11.78;54.56
61682;BME280;47577;43.610;25.010;2023-02-22T07:03:40;100390.50;;;11.81;54.87
61682;BME280;47577;43.610;25.010;2023-02-22T07:06:07;100393.81;;;12.10;54.11
61682;BME280;47577;43.610;25.010;2023-02-22T07:08:37;100401.19;;;12.03;54.32
61682;BME280;47577;43.610;25.010;2023-02-22T07:11:05;100385.56;;;12.16;54.13
61682;BME280;47577;43.610;25.010;2023-02-22T07:13:31;100385.19;;;12.25;53.70
61682;BME280;47577;43.610;25.010;2023-02-22T07:16:00;100389.53;;;12.28;55.17
61682;BME280;47577;43.610;25.010;2023-02-22T07:18:26;100391.94;;;12.34;53.26
61682;BME280;47577;43.610;25.010;2023-02-22T07:20:55;100392.97;;;12.52;53.37
61682;BME280;47577;43.610;25.010;2023-02-22T07:23:23;100387.09;;;12.43;54.34
61682;BME280;47577;43.610;25.010;2023-02-22T07:25:58;100391.19;;;12.52;53.08
61682;BME280;47577;43.610;25.010;2023-02-22T07:29:24;100385.97;;;12.49;53.32
61682;BME280;47577;43.610;25.010;2023-02-22T07:31:50;100393.50;;;12.60;53.16
61682;BME280;47577;43.610;25.010;2023-02-22T07:34:16;100389.81;;;12.85;52.02
61682;BME280;47577;43.610;25.010;2023-02-22T07:36:42;100396.47;;;12.74;52.11
61682;BME280;47577;43.610;25.010;2023-02-22T07:39:11;100397.06;;;12.81;51.87
61682;BME280;47577;43.610;25.010;2023-02-22T07:41:37;100391.25;;;12.71;52.66
61682;BME280;47577;43.610;25.010;2023-02-22T07:44:09;100419.56;;;12.75;52.88
61682;BME280;47577;43.610;25.010;2023-02-22T07:46:37;100397.34;;;12.75;52.90
61682;BME280;47577;43.610;25.010;2023-02-22T07:49:03;100379.31;;;13.01;51.72
61682;BME280;47577;43.610;25.010;2023-02-22T07:51:29;100401.88;;;12.93;52.31
61682;BME280;47577;43.610;25.010;2023-02-22T07:53:55;100379.88;;;13.09;51.52
61682;BME280;47577;43.610;25.010;2023-02-22T07:56:21;100391.44;;;13.28;51.57
61682;BME280;47577;43.610;25.010;2023-02-22T07:58:47;100398.47;;;13.10;51.10
61682;BME280;47577;43.610;25.010;2023-02-22T08:01:15;100392.25;;;13.10;51.83
61682;BME280;47577;43.610;25.010;2023-02-22T08:03:41;100384.19;;;13.11;51.92
61682;BME280;47577;43.610;25.010;2023-02-22T08:06:07;100396.47;;;13.55;50.93
61682;BME280;47577;43.610;25.010;2023-02-22T08:08:33;100395.69;;;13.53;50.06
61682;BME280;47577;43.610;25.010;2023-02-22T08:10:59;100391.66;;;13.63;50.12
61682;BME280;47577;43.610;25.010;2023-02-22T08:13:28;100394.28;;;13.44;50.83
61682;BME280;47577;43.610;25.010;2023-02-22T08:15:54;100392.66;;;13.80;49.86
61682;BME280;47577;43.610;25.010;2023-02-22T08:18:24;100395.84;;;13.88;49.03
61682;BME280;47577;43.610;25.010;2023-02-22T08:20:59;100383.34;;;13.88;50.69
61682;BME280;47577;43.610;25.010;2023-02-22T08:23:25;100380.31;;;13.96;49.49
61682;BME280;47577;43.610;25.010;2023-02-22T08:25:54;100386.59;;;14.14;50.03
61682;BME280;47577;43.610;25.010;2023-02-22T08:28:22;100393.50;;;14.18;49.44
61682;BME280;47577;43.610;25.010;2023-02-22T08:31:02;100380.16;;;14.36;47.68
61682;BME280;47577;43.610;25.010;2023-02-22T08:33:31;100381.44;;;14.10;50.09
61682;BME280;47577;43.610;25.010;2023-02-22T08:35:57;100394.88;;;14.44;49.09
61682;BME280;47577;43.610;25.010;2023-02-22T08:38:26;100377.50;;;14.36;48.30
61682;BME280;47577;43.610;25.010;2023-02-22T08:40:52;100385.81;;;14.66;47.43
61682;BME280;47577;43.610;25.010;2023-02-22T08:43:19;100388.78;;;14.60;48.66
61682;BME280;47577;43.610;25.010;2023-02-22T08:45:54;100391.63;;;14.74;48.74
61682;BME280;47577;43.610;25.010;2023-02-22T08:48:20;100388.78;;;14.95;48.72
61682;BME280;47577;43.610;25.010;2023-02-22T08:50:46;100397.63;;;14.97;47.34
61682;BME280;47577;43.610;25.010;2023-02-22T08:53:12;100401.53;;;15.07;46.82
61682;BME280;47577;43.610;25.010;2023-02-22T08:55:39;100402.81;;;15.00;47.19
61682;BME280;47577;43.610;25.010;2023-02-22T08:58:06;100395.16;;;14.75;47.30
61682;BME280;47577;43.610;25.010;2023-02-22T09:00:37;100387.59;;;15.01;48.33
61682;BME280;47577;43.610;25.010;2023-02-22T09:03:06;100390.13;;;15.04;47.24
61682;BME280;47577;43.610;25.010;2023-02-22T09:05:32;100391.91;;;15.21;46.44
61682;BME280;47577;43.610;25.010;2023-02-22T09:07:59;100384.78;;;14.86;47.46
61682;BME280;47577;43.610;25.010;2023-02-22T09:10:28;100392.63;;;15.24;47.24
61682;BME280;47577;43.610;25.010;2023-02-22T09:12:55;100394.25;;;15.60;45.98
61682;BME280;47577;43.610;25.010;2023-02-22T09:15:23;100394.34;;;15.59;45.77
61682;BME280;47577;43.610;25.010;2023-02-22T09:17:50;100391.28;;;15.49;45.55
61682;BME280;47577;43.610;25.010;2023-02-22T09:20:18;100413.00;;;15.60;46.11
61682;BME280;47577;43.610;25.010;2023-02-22T09:22:45;100389.06;;;15.57;45.51
61682;BME280;47577;43.610;25.010;2023-02-22T09:25:11;100378.88;;;15.30;44.94
61682;BME280;47577;43.610;25.010;2023-02-22T09:27:37;100393.00;;;15.50;44.93
61682;BME280;47577;43.610;25.010;2023-02-22T09:30:05;100375.06;;;15.68;44.12
61682;BME280;47577;43.610;25.010;2023-02-22T09:32:35;100378.09;;;15.62;44.16
61682;BME280;47577;43.610;25.010;2023-02-22T09:35:01;100369.81;;;15.82;44.99
61682;BME280;47577;43.610;25.010;2023-02-22T09:37:26;100372.66;;;15.95;44.51
61682;BME280;47577;43.610;25.010;2023-02-22T09:39:52;100366.78;;;16.04;44.44
61682;BME280;47577;43.610;25.010;2023-02-22T09:42:32;100371.16;;;16.37;44.04
61682;BME280;47577;43.610;25.010;2023-02-22T09:45:06;100368.78;;;16.47;43.43
61682;BME280;47577;43.610;25.010;2023-02-22T09:47:58;100369.06;;;16.73;43.38
61682;BME280;47577;43.610;25.010;2023-02-22T09:50:30;100373.22;;;16.78;41.81
61682;BME280;47577;43.610;25.010;2023-02-22T09:53:07;100367.03;;;16.62;42.08
61682;BME280;47577;43.610;25.010;2023-02-22T09:55:42;100365.97;;;16.34;42.36
61682;BME280;47577;43.610;25.010;2023-02-22T09:58:23;100362.13;;;16.54;42.43
61682;BME280;47577;43.610;25.010;2023-02-22T10:00:56;100374.34;;;16.44;41.61
61682;BME280;47577;43.610;25.010;2023-02-22T10:03:28;100364.19;;;16.19;42.66
61682;BME280;47577;43.610;25.010;2023-02-22T10:06:05;100367.66;;;16.51;42.52
61682;BME280;47577;43.610;25.010;2023-02-22T10:08:36;100361.44;;;16.51;43.05
61682;BME280;47577;43.610;25.010;2023-02-22T10:14:28;100355.84;;;17.14;41.20
61682;BME280;47577;43.610;25.010;2023-02-22T10:17:14;100351.41;;;16.99;40.77
61682;BME280;47577;43.610;25.010;2023-02-22T10:25:05;100349.22;;;17.20;41.25
61682;BME280;47577;43.610;25.010;2023-02-22T10:27:57;100340.28;;;17.05;40.99
61682;BME280;47577;43.610;25.010;2023-02-22T10:30:34;100349.63;;;17.28;40.95
61682;BME280;47577;43.610;25.010;2023-02-22T10:33:16;100343.66;;;17.23;40.35
61682;BME280;47577;43.610;25.010;2023-02-22T10:35:44;100335.88;;;17.33;40.30
61682;BME280;47577;43.610;25.010;2023-02-22T10:38:16;100338.09;;;17.26;39.98
61682;BME280;47577;43.610;25.010;2023-02-22T10:40:53;100336.09;;;17.15;39.23
61682;BME280;47577;43.610;25.010;2023-02-22T10:43:21;100323.78;;;17.26;40.37
61682;BME280;47577;43.610;25.010;2023-02-22T10:45:50;100332.31;;;17.47;40.07
61682;BME280;47577;43.610;25.010;2023-02-22T10:48:20;100313.44;;;17.20;40.14
61682;BME280;47577;43.610;25.010;2023-02-22T10:50:46;100321.25;;;17.66;38.94
61682;BME280;47577;43.610;25.010;2023-02-22T10:53:13;100315.53;;;17.85;39.01
61682;BME280;47577;43.610;25.010;2023-02-22T10:56:10;100322.50;;;17.60;38.34
61682;BME280;47577;43.610;25.010;2023-02-22T10:58:57;100316.00;;;17.50;39.13
61682;BME280;47577;43.610;25.010;2023-02-22T11:01:35;100302.59;;;17.35;40.22
61682;BME280;47577;43.610;25.010;2023-02-22T11:04:15;100308.88;;;17.63;39.05
61682;BME280;47577;43.610;25.010;2023-02-22T11:06:47;100309.44;;;17.54;40.20
61682;BME280;47577;43.610;25.010;2023-02-22T11:09:18;100303.91;;;17.43;40.30
61682;BME280;47577;43.610;25.010;2023-02-22T11:11:48;100293.19;;;17.28;41.07
61682;BME280;47577;43.610;25.010;2023-02-22T11:14:27;100293.03;;;17.59;39.65
61682;BME280;47577;43.610;25.010;2023-02-22T11:16:55;100293.41;;;17.67;39.03
61682;BME280;47577;43.610;25.010;2023-02-22T11:19:30;100299.13;;;17.75;39.74
61682;BME280;47577;43.610;25.010;2023-02-22T11:22:11;100274.53;;;17.81;39.36
61682;BME280;47577;43.610;25.010;2023-02-22T11:24:47;100288.88;;;17.82;37.87
61682;BME280;47577;43.610;25.010;2023-02-22T11:27:34;100294.38;;;17.66;37.31
61682;BME280;47577;43.610;25.010;2023-02-22T11:30:20;100277.22;;;17.81;38.85
61682;BME280;47577;43.610;25.010;2023-02-22T11:35:47;100280.53;;;17.72;38.34
61682;BME280;47577;43.610;25.010;2023-02-22T11:38:18;100281.44;;;17.85;38.66
61682;BME280;47577;43.610;25.010;2023-02-22T11:40:46;100270.88;;;17.97;37.54
61682;BME280;47577;43.610;25.010;2023-02-22T11:43:28;100279.69;;;17.57;38.71
61682;BME280;47577;43.610;25.010;2023-02-22T11:48:30;100269.13;;;17.27;38.94
61682;BME280;47577;43.610;25.010;2023-02-22T11:51:11;100274.13;;;17.60;39.79
61682;BME280;47577;43.610;25.010;2023-02-22T11:54:24;100256.78;;;17.93;39.47
61682;BME280;47577;43.610;25.010;2023-02-22T12:02:35;100269.34;;;17.78;39.04
61682;BME280;47577;43.610;25.010;2023-02-22T12:13:39;100249.66;;;18.71;39.03
61682;BME280;47577;43.610;25.010;2023-02-22T12:16:45;100244.06;;;18.61;36.62
61682;BME280;47577;43.610;25.010;2023-02-22T12:22:33;100253.03;;;19.00;35.92
61682;BME280;47577;43.610;25.010;2023-02-22T12:25:17;100252.38;;;18.84;35.19
61682;BME280;47577;43.610;25.010;2023-02-22T12:27:54;100243.97;;;18.37;37.41
61682;BME280;47577;43.610;25.010;2023-02-22T12:30:34;100248.72;;;18.72;37.07
61682;BME280;47577;43.610;25.010;2023-02-22T12:33:10;100239.75;;;18.45;37.74
61682;BME280;47577;43.610;25.010;2023-02-22T12:35:43;100240.19;;;18.78;36.97
61682;BME280;47577;43.610;25.010;2023-02-22T12:38:53;100244.19;;;18.85;37.68
61682;BME280;47577;43.610;25.010;2023-02-22T12:44:01;100232.25;;;18.89;37.49
61682;BME280;47577;43.610;25.010;2023-02-22T12:46:43;100226.53;;;18.55;36.56
61682;BME280;47577;43.610;25.010;2023-02-22T12:52:25;100230.72;;;18.34;37.37
61682;BME280;47577;43.610;25.010;2023-02-22T12:55:13;100218.34;;;18.70;35.88
61682;BME280;47577;43.610;25.010;2023-02-22T13:00:31;100221.97;;;19.07;36.24
61682;BME280;47577;43.610;25.010;2023-02-22T13:03:05;100218.13;;;18.98;36.90
61682;BME280;47577;43.610;25.010;2023-02-22T13:05:38;100223.81;;;18.42;36.06
61682;BME280;47577;43.610;25.010;2023-02-22T13:10:51;100228.81;;;18.87;36.79
61682;BME280;47577;43.610;25.010;2023-02-22T13:16:34;100228.75;;;19.50;34.18
61682;BME280;47577;43.610;25.010;2023-02-22T13:19:23;100236.22;;;18.96;35.45
61682;BME280;47577;43.610;25.010;2023-02-22T13:24:41;100228.16;;;19.33;34.49
61682;BME280;47577;43.610;25.010;2023-02-22T13:27:27;100226.66;;;19.42;34.20
61682;BME280;47577;43.610;25.010;2023-02-22T13:29:58;100225.63;;;19.56;35.90
61682;BME280;47577;43.610;25.010;2023-02-22T13:32:40;100223.94;;;19.66;34.96
61682;BME280;47577;43.610;25.010;2023-02-22T13:35:37;100221.34;;;19.04;36.03
61682;BME280;47577;43.610;25.010;2023-02-22T13:38:38;100221.13;;;19.07;35.72
61682;BME280;47577;43.610;25.010;2023-02-22T13:44:24;100226.72;;;19.16;36.42
61682;BME280;47577;43.610;25.010;2023-02-22T13:52:17;100219.50;;;19.78;34.18
61682;BME280;47577;43.610;25.010;2023-02-22T13:55:03;100224.84;;;19.91;34.16
61682;BME280;47577;43.610;25.010;2023-02-22T13:57:41;100224.25;;;19.99;34.09
61682;BME280;47577;43.610;25.010;2023-02-22T14:03:00;100232.00;;;19.55;36.37
61682;BME280;47577;43.610;25.010;2023-02-22T14:10:58;100226.13;;;18.87;37.25
61682;BME280;47577;43.610;25.010;2023-02-22T14:13:29;100230.16;;;19.18;36.35
61682;BME280;47577;43.610;25.010;2023-02-22T14:19:03;100240.44;;;18.88;36.87
61682;BME280;47577;43.610;25.010;2023-02-22T14:21:32;100239.66;;;18.47;37.03
61682;BME280;47577;43.610;25.010;2023-02-22T14:24:18;100237.38;;;18.41;37.65
61682;BME280;47577;43.610;25.010;2023-02-22T14:27:13;100229.53;;;18.51;38.69
61682;BME280;47577;43.610;25.010;2023-02-22T14:29:54;100215.97;;;18.91;36.66
61682;BME280;47577;43.610;25.010;2023-02-22T14:32:30;100231.34;;;19.02;36.35
61682;BME280;47577;43.610;25.010;2023-02-22T14:34:58;100227.78;;;18.75;36.57
61682;BME280;47577;43.610;25.010;2023-02-22T14:37:32;100227.78;;;18.50;37.79
61682;BME280;47577;43.610;25.010;2023-02-22T14:40:15;100230.31;;;18.91;36.85
61682;BME280;47577;43.610;25.010;2023-02-22T14:42:47;100225.22;;;18.61;37.74
61682;BME280;47577;43.610;25.010;2023-02-22T14:45:28;100231.16;;;18.66;37.52
61682;BME280;47577;43.610;25.010;2023-02-22T14:53:18;100223.72;;;18.82;37.55
61682;BME280;47577;43.610;25.010;2023-02-22T14:56:16;100228.59;;;18.90;37.64
61682;BME280;47577;43.610;25.010;2023-02-22T14:59:18;100232.44;;;18.48;38.30
61682;BME280;47577;43.610;25.010;2023-02-22T15:01:44;100220.47;;;18.26;39.94
61682;BME280;47577;43.610;25.010;2023-02-22T15:04:28;100223.59;;;18.33;38.97
61682;BME280;47577;43.610;25.010;2023-02-22T15:06:56;100223.84;;;18.55;39.17
61682;BME280;47577;43.610;25.010;2023-02-22T15:09:30;100222.97;;;18.55;39.20